sensor_id;sensor_type;location;lat;lon;timestamp;temperature;humidity
51613;DHT22;37694;51.748;14.326;2022-10-24T00:00:00;24.60;56.60
51613;DHT22;37694;51.748;14.326;2022-10-24T00:02:26;24.60;56.10
51613;DHT22;37694;51.748;14.326;2022-10-24T00:04:52;24.60;56.20
51613;DHT22;37694;51.748;14.326;2022-10-24T00:07:18;24.60;55.90
51613;DHT22;37694;51.748;14.326;2022-10-24T00:09:43;24.50;55.90
51613;DHT22;37694;51.748;14.326;2022-10-24T00:12:09;24.60;56.10
51613;DHT22;37694;51.748;14.326;2022-10-24T00:14:35;24.60;56.50
51613;DHT22;37694;51.748;14.326;2022-10-24T00:17:01;24.50;56.00
51613;DHT22;37694;51.748;14.326;2022-10-24T00:19:27;24.60;56.00
51613;DHT22;37694;51.748;14.326;2022-10-24T00:21:53;24.50;56.00
51613;DHT22;37694;51.748;14.326;2022-10-24T00:24:18;24.50;56.20
51613;DHT22;37694;51.748;14.326;2022-10-24T00:26:44;24.50;56.10
51613;DHT22;37694;51.748;14.326;2022-10-24T00:29:10;24.50;56.20
51613;DHT22;37694;51.748;14.326;2022-10-24T00:31:36;24.50;56.10
51613;DHT22;37694;51.748;14.326;2022-10-24T00:34:02;24.50;56.10
51613;DHT22;37694;51.748;14.326;2022-10-24T00:36:29;24.50;56.00
51613;DHT22;37694;51.748;14.326;2022-10-24T00:38:55;24.50;56.10
51613;DHT22;37694;51.748;14.326;2022-10-24T00:41:24;24.50;56.10
51613;DHT22;37694;51.748;14.326;2022-10-24T00:44:11;24.50;56.20
51613;DHT22;37694;51.748;14.326;2022-10-24T00:46:36;24.50;56.10
51613;DHT22;37694;51.748;14.326;2022-10-24T00:49:02;24.50;56.00
51613;DHT22;37694;51.748;14.326;2022-10-24T00:51:32;24.50;56.20
51613;DHT22;37694;51.748;14.326;2022-10-24T00:54:04;24.50;56.00
51613;DHT22;37694;51.748;14.326;2022-10-24T00:56:34;24.50;56.20
51613;DHT22;37694;51.748;14.326;2022-10-24T00:59:02;24.50;56.00
51613;DHT22;37694;51.748;14.326;2022-10-24T01:01:28;24.50;55.90
51613;DHT22;37694;51.748;14.326;2022-10-24T01:03:54;24.50;56.20
51613;DHT22;37694;51.748;14.326;2022-10-24T01:09:20;24.50;56.10
51613;DHT22;37694;51.748;14.326;2022-10-24T01:31:44;24.40;56.10
51613;DHT22;37694;51.748;14.326;2022-10-24T01:34:19;24.30;56.00
51613;DHT22;37694;51.748;14.326;2022-10-24T01:37:01;24.30;56.00
51613;DHT22;37694;51.748;14.326;2022-10-24T01:39:32;24.40;56.10
51613;DHT22;37694;51.748;14.326;2022-10-24T01:42:00;24.40;56.00
51613;DHT22;37694;51.748;14.326;2022-10-24T01:44:31;24.30;55.90
51613;DHT22;37694;51.748;14.326;2022-10-24T01:47:02;24.40;55.90
51613;DHT22;37694;51.748;14.326;2022-10-24T01:49:33;24.30;55.80
51613;DHT22;37694;51.748;14.326;2022-10-24T01:52:04;24.30;55.80
51613;DHT22;37694;51.748;14.326;2022-10-24T01:54:32;24.30;55.70
51613;DHT22;37694;51.748;14.326;2022-10-24T01:56:59;24.30;55.70
51613;DHT22;37694;51.748;14.326;2022-10-24T02:02:20;24.30;55.90
51613;DHT22;37694;51.748;14.326;2022-10-24T02:05:10;24.30;55.90
51613;DHT22;37694;51.748;14.326;2022-10-24T02:07:38;24.30;56.00
51613;DHT22;37694;51.748;14.326;2022-10-24T02:10:13;24.30;56.10
51613;DHT22;37694;51.748;14.326;2022-10-24T02:12:47;24.30;55.90
51613;DHT22;37694;51.748;14.326;2022-10-24T02:15:20;24.30;55.90
51613;DHT22;37694;51.748;14.326;2022-10-24T02:17:47;24.30;55.90
51613;DHT22;37694;51.748;14.326;2022-10-24T02:20:13;24.30;56.00
51613;DHT22;37694;51.748;14.326;2022-10-24T02:22:50;24.30;56.10
51613;DHT22;37694;51.748;14.326;2022-10-24T02:25:32;24.30;56.00
51613;DHT22;37694;51.748;14.326;2022-10-24T02:28:09;24.30;56.00
51613;DHT22;37694;51.748;14.326;2022-10-24T02:30:43;24.20;55.90
51613;DHT22;37694;51.748;14.326;2022-10-24T02:33:11;24.20;55.90
51613;DHT22;37694;51.748;14.326;2022-10-24T02:35:39;24.20;56.00
51613;DHT22;37694;51.748;14.326;2022-10-24T02:38:16;24.20;56.00
51613;DHT22;37694;51.748;14.326;2022-10-24T02:40:45;24.20;55.80
51613;DHT22;37694;51.748;14.326;2022-10-24T02:43:13;24.20;56.10
51613;DHT22;37694;51.748;14.326;2022-10-24T02:45:39;24.20;55.90
51613;DHT22;37694;51.748;14.326;2022-10-24T02:48:08;24.20;56.10
51613;DHT22;37694;51.748;14.326;2022-10-24T02:50:36;24.20;56.00
51613;DHT22;37694;51.748;14.326;2022-10-24T02:53:03;24.20;55.90
51613;DHT22;37694;51.748;14.326;2022-10-24T02:55:29;24.20;56.00
51613;DHT22;37694;51.748;14.326;2022-10-24T02:57:54;24.20;55.90
51613;DHT22;37694;51.748;14.326;2022-10-24T03:00:20;24.20;56.00
51613;DHT22;37694;51.748;14.326;2022-10-24T03:02:46;24.20;56.00
51613;DHT22;37694;51.748;14.326;2022-10-24T03:05:12;24.20;55.80
51613;DHT22;37694;51.748;14.326;2022-10-24T03:07:38;24.10;55.80
51613;DHT22;37694;51.748;14.326;2022-10-24T03:10:04;24.20;55.80
51613;DHT22;37694;51.748;14.326;2022-10-24T03:12:30;24.10;55.90
51613;DHT22;37694;51.748;14.326;2022-10-24T03:14:55;24.20;55.90
51613;DHT22;37694;51.748;14.326;2022-10-24T03:17:21;24.20;55.90
51613;DHT22;37694;51.748;14.326;2022-10-24T03:19:47;24.10;55.80
51613;DHT22;37694;51.748;14.326;2022-10-24T03:22:13;24.20;56.00
51613;DHT22;37694;51.748;14.326;2022-10-24T03:24:38;24.10;55.90
51613;DHT22;37694;51.748;14.326;2022-10-24T03:27:04;24.10;55.70
51613;DHT22;37694;51.748;14.326;2022-10-24T03:29:30;24.10;55.70
51613;DHT22;37694;51.748;14.326;2022-10-24T03:31:55;24.10;55.80
51613;DHT22;37694;51.748;14.326;2022-10-24T03:34:21;24.10;55.80
51613;DHT22;37694;51.748;14.326;2022-10-24T03:36:47;24.10;55.80
51613;DHT22;37694;51.748;14.326;2022-10-24T03:39:12;24.10;55.80
51613;DHT22;37694;51.748;14.326;2022-10-24T03:41:38;24.10;55.80
51613;DHT22;37694;51.748;14.326;2022-10-24T03:44:03;24.10;55.90
51613;DHT22;37694;51.748;14.326;2022-10-24T03:46:29;24.10;55.80
51613;DHT22;37694;51.748;14.326;2022-10-24T03:48:54;24.10;55.80
51613;DHT22;37694;51.748;14.326;2022-10-24T03:51:20;24.10;55.80
51613;DHT22;37694;51.748;14.326;2022-10-24T03:53:46;24.10;55.90
51613;DHT22;37694;51.748;14.326;2022-10-24T03:56:11;24.10;55.90
51613;DHT22;37694;51.748;14.326;2022-10-24T03:58:37;24.10;55.80
51613;DHT22;37694;51.748;14.326;2022-10-24T04:01:03;24.00;55.80
51613;DHT22;37694;51.748;14.326;2022-10-24T04:03:28;24.10;55.80
51613;DHT22;37694;51.748;14.326;2022-10-24T04:05:54;24.00;55.80
51613;DHT22;37694;51.748;14.326;2022-10-24T04:08:19;24.10;55.90
51613;DHT22;37694;51.748;14.326;2022-10-24T04:10:45;24.00;55.90
51613;DHT22;37694;51.748;14.326;2022-10-24T04:13:11;24.10;55.80
51613;DHT22;37694;51.748;14.326;2022-10-24T04:15:37;24.00;56.00
51613;DHT22;37694;51.748;14.326;2022-10-24T04:18:03;24.00;55.70
51613;DHT22;37694;51.748;14.326;2022-10-24T04:20:28;24.00;55.60
51613;DHT22;37694;51.748;14.326;2022-10-24T04:22:54;24.00;55.60
51613;DHT22;37694;51.748;14.326;2022-10-24T04:25:20;24.00;55.60
51613;DHT22;37694;51.748;14.326;2022-10-24T04:27:45;24.00;55.50
51613;DHT22;37694;51.748;14.326;2022-10-24T04:30:12;24.00;55.50
51613;DHT22;37694;51.748;14.326;2022-10-24T04:32:38;24.00;55.60
51613;DHT22;37694;51.748;14.326;2022-10-24T04:35:04;24.00;55.60
51613;DHT22;37694;51.748;14.326;2022-10-24T04:37:30;24.00;55.60
51613;DHT22;37694;51.748;14.326;2022-10-24T04:39:56;24.00;55.60
51613;DHT22;37694;51.748;14.326;2022-10-24T04:42:23;24.00;55.70
51613;DHT22;37694;51.748;14.326;2022-10-24T04:44:49;24.00;55.60
51613;DHT22;37694;51.748;14.326;2022-10-24T04:47:14;24.00;55.90
51613;DHT22;37694;51.748;14.326;2022-10-24T04:49:40;24.00;55.70
51613;DHT22;37694;51.748;14.326;2022-10-24T04:52:06;24.00;55.70
51613;DHT22;37694;51.748;14.326;2022-10-24T04:54:32;24.00;55.60
51613;DHT22;37694;51.748;14.326;2022-10-24T04:56:57;24.00;55.70
51613;DHT22;37694;51.748;14.326;2022-10-24T04:59:23;23.90;55.60
51613;DHT22;37694;51.748;14.326;2022-10-24T05:01:48;24.00;56.50
51613;DHT22;37694;51.748;14.326;2022-10-24T05:04:14;23.90;55.60
51613;DHT22;37694;51.748;14.326;2022-10-24T05:06:40;23.90;55.70
51613;DHT22;37694;51.748;14.326;2022-10-24T05:09:06;23.90;55.70
51613;DHT22;37694;51.748;14.326;2022-10-24T05:11:31;23.90;55.70
51613;DHT22;37694;51.748;14.326;2022-10-24T05:13:57;23.90;55.70
51613;DHT22;37694;51.748;14.326;2022-10-24T05:16:23;23.90;55.70
51613;DHT22;37694;51.748;14.326;2022-10-24T05:18:48;23.90;55.70
51613;DHT22;37694;51.748;14.326;2022-10-24T05:21:14;23.90;55.80
51613;DHT22;37694;51.748;14.326;2022-10-24T05:23:40;23.90;55.90
51613;DHT22;37694;51.748;14.326;2022-10-24T05:26:06;23.90;55.80
51613;DHT22;37694;51.748;14.326;2022-10-24T05:28:32;23.90;55.90
51613;DHT22;37694;51.748;14.326;2022-10-24T05:30:57;23.90;56.30
51613;DHT22;37694;51.748;14.326;2022-10-24T05:33:23;23.90;56.50
51613;DHT22;37694;51.748;14.326;2022-10-24T05:35:50;23.90;56.40
51613;DHT22;37694;51.748;14.326;2022-10-24T05:38:16;23.90;56.20
51613;DHT22;37694;51.748;14.326;2022-10-24T05:40:41;23.90;56.70
51613;DHT22;37694;51.748;14.326;2022-10-24T05:43:07;23.90;56.70
51613;DHT22;37694;51.748;14.326;2022-10-24T05:45:33;24.00;56.70
51613;DHT22;37694;51.748;14.326;2022-10-24T05:47:59;24.00;56.50
51613;DHT22;37694;51.748;14.326;2022-10-24T05:50:25;24.00;56.20
51613;DHT22;37694;51.748;14.326;2022-10-24T05:52:52;23.90;56.30
51613;DHT22;37694;51.748;14.326;2022-10-24T05:55:17;23.90;56.10
51613;DHT22;37694;51.748;14.326;2022-10-24T05:57:43;24.00;56.10
51613;DHT22;37694;51.748;14.326;2022-10-24T06:00:12;23.90;56.10
51613;DHT22;37694;51.748;14.326;2022-10-24T06:02:39;23.90;56.50
51613;DHT22;37694;51.748;14.326;2022-10-24T06:05:06;24.00;56.80
51613;DHT22;37694;51.748;14.326;2022-10-24T06:07:31;24.00;56.50
51613;DHT22;37694;51.748;14.326;2022-10-24T06:09:57;24.00;56.80
51613;DHT22;37694;51.748;14.326;2022-10-24T06:12:23;24.00;56.90
51613;DHT22;37694;51.748;14.326;2022-10-24T06:14:48;24.00;56.90
51613;DHT22;37694;51.748;14.326;2022-10-24T06:17:14;24.00;56.80
51613;DHT22;37694;51.748;14.326;2022-10-24T06:19:40;24.00;56.50
51613;DHT22;37694;51.748;14.326;2022-10-24T06:22:07;24.00;56.50
51613;DHT22;37694;51.748;14.326;2022-10-24T06:24:36;24.00;56.40
51613;DHT22;37694;51.748;14.326;2022-10-24T06:27:03;24.00;56.40
51613;DHT22;37694;51.748;14.326;2022-10-24T06:29:28;24.00;56.40
51613;DHT22;37694;51.748;14.326;2022-10-24T06:31:54;24.00;56.40
51613;DHT22;37694;51.748;14.326;2022-10-24T06:34:20;24.00;56.30
51613;DHT22;37694;51.748;14.326;2022-10-24T06:36:45;24.00;56.40
51613;DHT22;37694;51.748;14.326;2022-10-24T06:39:11;23.90;56.30
51613;DHT22;37694;51.748;14.326;2022-10-24T06:41:36;24.00;56.40
51613;DHT22;37694;51.748;14.326;2022-10-24T06:44:02;23.90;56.20
51613;DHT22;37694;51.748;14.326;2022-10-24T06:46:28;23.90;56.20
51613;DHT22;37694;51.748;14.326;2022-10-24T06:48:54;23.90;56.10
51613;DHT22;37694;51.748;14.326;2022-10-24T06:51:21;23.90;56.20
51613;DHT22;37694;51.748;14.326;2022-10-24T06:53:47;23.90;56.10
51613;DHT22;37694;51.748;14.326;2022-10-24T06:56:12;23.90;56.10
51613;DHT22;37694;51.748;14.326;2022-10-24T06:58:39;23.90;56.00
51613;DHT22;37694;51.748;14.326;2022-10-24T07:01:09;24.00;56.10
51613;DHT22;37694;51.748;14.326;2022-10-24T07:03:35;23.90;56.00
51613;DHT22;37694;51.748;14.326;2022-10-24T07:06:16;23.90;56.00
51613;DHT22;37694;51.748;14.326;2022-10-24T07:08:42;24.00;55.90
51613;DHT22;37694;51.748;14.326;2022-10-24T07:11:08;23.90;56.00
51613;DHT22;37694;51.748;14.326;2022-10-24T07:13:34;23.90;55.90
51613;DHT22;37694;51.748;14.326;2022-10-24T07:16:00;23.90;55.90
51613;DHT22;37694;51.748;14.326;2022-10-24T07:18:25;23.90;55.90
51613;DHT22;37694;51.748;14.326;2022-10-24T07:20:51;23.90;56.00
51613;DHT22;37694;51.748;14.326;2022-10-24T07:23:17;23.90;55.90
51613;DHT22;37694;51.748;14.326;2022-10-24T07:25:44;23.90;55.90
51613;DHT22;37694;51.748;14.326;2022-10-24T07:28:10;23.90;55.90
51613;DHT22;37694;51.748;14.326;2022-10-24T07:30:37;23.90;55.80
51613;DHT22;37694;51.748;14.326;2022-10-24T07:33:03;23.90;55.90
51613;DHT22;37694;51.748;14.326;2022-10-24T07:35:28;23.90;55.80
51613;DHT22;37694;51.748;14.326;2022-10-24T07:37:54;23.90;55.70
51613;DHT22;37694;51.748;14.326;2022-10-24T07:40:19;23.90;55.90
51613;DHT22;37694;51.748;14.326;2022-10-24T07:42:45;23.90;55.70
51613;DHT22;37694;51.748;14.326;2022-10-24T07:45:11;23.90;55.80
51613;DHT22;37694;51.748;14.326;2022-10-24T07:47:37;23.90;56.60
51613;DHT22;37694;51.748;14.326;2022-10-24T07:50:04;23.90;55.70
51613;DHT22;37694;51.748;14.326;2022-10-24T07:52:30;23.90;55.70
51613;DHT22;37694;51.748;14.326;2022-10-24T07:54:55;24.00;55.80
51613;DHT22;37694;51.748;14.326;2022-10-24T07:57:22;23.90;55.80
51613;DHT22;37694;51.748;14.326;2022-10-24T07:59:48;24.00;55.90
51613;DHT22;37694;51.748;14.326;2022-10-24T08:02:15;23.90;55.90
51613;DHT22;37694;51.748;14.326;2022-10-24T08:04:40;24.00;56.00
51613;DHT22;37694;51.748;14.326;2022-10-24T08:07:06;24.00;55.80
51613;DHT22;37694;51.748;14.326;2022-10-24T08:09:39;24.00;55.80
51613;DHT22;37694;51.748;14.326;2022-10-24T08:12:05;24.00;56.70
51613;DHT22;37694;51.748;14.326;2022-10-24T08:14:30;24.00;55.80
51613;DHT22;37694;51.748;14.326;2022-10-24T08:16:56;24.10;55.90
51613;DHT22;37694;51.748;14.326;2022-10-24T08:19:21;24.10;55.90
51613;DHT22;37694;51.748;14.326;2022-10-24T08:21:47;24.10;55.70
51613;DHT22;37694;51.748;14.326;2022-10-24T08:24:15;24.10;55.90
51613;DHT22;37694;51.748;14.326;2022-10-24T08:26:40;24.10;55.90
51613;DHT22;37694;51.748;14.326;2022-10-24T08:29:06;24.10;55.80
51613;DHT22;37694;51.748;14.326;2022-10-24T08:31:36;24.10;55.70
51613;DHT22;37694;51.748;14.326;2022-10-24T08:34:02;24.20;55.80
51613;DHT22;37694;51.748;14.326;2022-10-24T08:36:33;24.20;55.70
51613;DHT22;37694;51.748;14.326;2022-10-24T08:39:00;24.20;55.60
51613;DHT22;37694;51.748;14.326;2022-10-24T08:41:31;24.20;55.70
51613;DHT22;37694;51.748;14.326;2022-10-24T08:43:59;24.30;55.70
51613;DHT22;37694;51.748;14.326;2022-10-24T08:46:40;24.30;55.60
51613;DHT22;37694;51.748;14.326;2022-10-24T08:49:19;24.30;55.60
51613;DHT22;37694;51.748;14.326;2022-10-24T08:51:57;24.30;55.60
51613;DHT22;37694;51.748;14.326;2022-10-24T08:54:28;24.30;55.50
51613;DHT22;37694;51.748;14.326;2022-10-24T08:56:55;24.40;55.60
51613;DHT22;37694;51.748;14.326;2022-10-24T08:59:25;24.40;55.60
51613;DHT22;37694;51.748;14.326;2022-10-24T09:01:58;24.40;55.40
51613;DHT22;37694;51.748;14.326;2022-10-24T09:04:29;24.50;55.40
51613;DHT22;37694;51.748;14.326;2022-10-24T09:06:56;24.50;55.30
51613;DHT22;37694;51.748;14.326;2022-10-24T09:09:35;24.50;55.20
51613;DHT22;37694;51.748;14.326;2022-10-24T09:12:10;24.50;55.20
51613;DHT22;37694;51.748;14.326;2022-10-24T09:14:43;24.50;55.20
51613;DHT22;37694;51.748;14.326;2022-10-24T09:19:54;24.60;55.00
51613;DHT22;37694;51.748;14.326;2022-10-24T09:22:21;24.60;55.00
51613;DHT22;37694;51.748;14.326;2022-10-24T09:24:54;24.60;55.00
51613;DHT22;37694;51.748;14.326;2022-10-24T09:27:24;24.60;54.80
51613;DHT22;37694;51.748;14.326;2022-10-24T09:29:51;24.60;54.90
51613;DHT22;37694;51.748;14.326;2022-10-24T09:32:20;24.60;54.80
51613;DHT22;37694;51.748;14.326;2022-10-24T09:34:47;24.60;54.80
51613;DHT22;37694;51.748;14.326;2022-10-24T09:37:43;24.60;54.80
51613;DHT22;37694;51.748;14.326;2022-10-24T09:40:30;24.70;54.80
51613;DHT22;37694;51.748;14.326;2022-10-24T09:43:30;24.70;54.70
51613;DHT22;37694;51.748;14.326;2022-10-24T09:49:02;24.70;54.70
51613;DHT22;37694;51.748;14.326;2022-10-24T09:51:43;24.70;54.70
51613;DHT22;37694;51.748;14.326;2022-10-24T09:54:22;24.70;54.60
51613;DHT22;37694;51.748;14.326;2022-10-24T09:57:10;24.80;54.70
51613;DHT22;37694;51.748;14.326;2022-10-24T09:59:40;24.80;54.60
51613;DHT22;37694;51.748;14.326;2022-10-24T10:04:39;24.80;54.50
51613;DHT22;37694;51.748;14.326;2022-10-24T10:07:10;24.90;54.50
51613;DHT22;37694;51.748;14.326;2022-10-24T10:09:37;24.90;54.50
51613;DHT22;37694;51.748;14.326;2022-10-24T10:12:24;24.90;54.40
51613;DHT22;37694;51.748;14.326;2022-10-24T10:14:51;24.90;54.30
51613;DHT22;37694;51.748;14.326;2022-10-24T10:17:25;24.90;54.30
51613;DHT22;37694;51.748;14.326;2022-10-24T10:19:53;25.00;54.20
51613;DHT22;37694;51.748;14.326;2022-10-24T10:22:28;25.00;54.20
51613;DHT22;37694;51.748;14.326;2022-10-24T10:24:55;25.00;54.10
51613;DHT22;37694;51.748;14.326;2022-10-24T10:27:28;25.00;54.00
51613;DHT22;37694;51.748;14.326;2022-10-24T10:33:11;25.10;53.90
51613;DHT22;37694;51.748;14.326;2022-10-24T10:38:57;25.00;53.90
51613;DHT22;37694;51.748;14.326;2022-10-24T10:49:40;25.00;53.80
51613;DHT22;37694;51.748;14.326;2022-10-24T10:52:11;25.00;53.90
51613;DHT22;37694;51.748;14.326;2022-10-24T10:57:56;25.00;53.70
51613;DHT22;37694;51.748;14.326;2022-10-24T11:00:33;25.00;53.80
51613;DHT22;37694;51.748;14.326;2022-10-24T11:11:36;24.90;53.90
51613;DHT22;37694;51.748;14.326;2022-10-24T11:14:14;24.90;53.90
51613;DHT22;37694;51.748;14.326;2022-10-24T11:16:42;24.90;54.00
51613;DHT22;37694;51.748;14.326;2022-10-24T11:19:24;24.90;54.00
51613;DHT22;37694;51.748;14.326;2022-10-24T11:21:55;24.90;54.00
51613;DHT22;37694;51.748;14.326;2022-10-24T11:24:22;24.90;54.00
51613;DHT22;37694;51.748;14.326;2022-10-24T11:27:05;24.90;53.90
51613;DHT22;37694;51.748;14.326;2022-10-24T11:29:41;24.90;53.90
51613;DHT22;37694;51.748;14.326;2022-10-24T11:32:35;24.90;53.90
51613;DHT22;37694;51.748;14.326;2022-10-24T11:35:12;24.90;54.00
51613;DHT22;37694;51.748;14.326;2022-10-24T11:37:41;24.80;54.30
51613;DHT22;37694;51.748;14.326;2022-10-24T11:40:12;24.80;54.10
51613;DHT22;37694;51.748;14.326;2022-10-24T11:43:01;24.80;54.10
51613;DHT22;37694;51.748;14.326;2022-10-24T11:45:52;24.80;54.10
51613;DHT22;37694;51.748;14.326;2022-10-24T11:48:35;24.80;54.00
51613;DHT22;37694;51.748;14.326;2022-10-24T11:51:18;24.80;54.00
51613;DHT22;37694;51.748;14.326;2022-10-24T11:53:52;24.80;54.00
51613;DHT22;37694;51.748;14.326;2022-10-24T11:56:50;24.80;54.00
51613;DHT22;37694;51.748;14.326;2022-10-24T11:59:21;24.80;54.10
51613;DHT22;37694;51.748;14.326;2022-10-24T12:04:59;24.80;54.10
51613;DHT22;37694;51.748;14.326;2022-10-24T12:10:52;24.80;54.10
51613;DHT22;37694;51.748;14.326;2022-10-24T12:19:04;24.70;54.30
51613;DHT22;37694;51.748;14.326;2022-10-24T12:21:43;24.70;54.30
51613;DHT22;37694;51.748;14.326;2022-10-24T12:24:32;24.70;54.10
51613;DHT22;37694;51.748;14.326;2022-10-24T12:27:02;24.70;54.10
51613;DHT22;37694;51.748;14.326;2022-10-24T12:29:31;24.70;54.10
51613;DHT22;37694;51.748;14.326;2022-10-24T12:31:59;24.70;54.00
51613;DHT22;37694;51.748;14.326;2022-10-24T12:37:02;24.70;54.00
51613;DHT22;37694;51.748;14.326;2022-10-24T12:39:34;24.70;54.00
51613;DHT22;37694;51.748;14.326;2022-10-24T12:42:00;24.70;54.00
51613;DHT22;37694;51.748;14.326;2022-10-24T12:46:58;24.70;54.00
51613;DHT22;37694;51.748;14.326;2022-10-24T12:49:31;24.70;54.00
51613;DHT22;37694;51.748;14.326;2022-10-24T12:51:59;24.70;54.00
51613;DHT22;37694;51.748;14.326;2022-10-24T12:54:44;24.70;54.00
51613;DHT22;37694;51.748;14.326;2022-10-24T12:59:49;24.70;54.00
51613;DHT22;37694;51.748;14.326;2022-10-24T13:07:50;24.70;54.00
51613;DHT22;37694;51.748;14.326;2022-10-24T13:10:36;24.70;54.00
51613;DHT22;37694;51.748;14.326;2022-10-24T13:21:43;24.60;54.10
51613;DHT22;37694;51.748;14.326;2022-10-24T13:31:50;24.60;54.00
51613;DHT22;37694;51.748;14.326;2022-10-24T13:34:19;24.60;54.10
51613;DHT22;37694;51.748;14.326;2022-10-24T13:36:49;24.60;54.00
51613;DHT22;37694;51.748;14.326;2022-10-24T13:39:18;24.60;54.00
51613;DHT22;37694;51.748;14.326;2022-10-24T13:41:48;24.60;54.00
51613;DHT22;37694;51.748;14.326;2022-10-24T13:44:28;24.60;54.00
51613;DHT22;37694;51.748;14.326;2022-10-24T13:50:16;24.60;54.00
51613;DHT22;37694;51.748;14.326;2022-10-24T14:00:21;24.50;54.00
51613;DHT22;37694;51.748;14.326;2022-10-24T14:02:47;24.50;54.00
51613;DHT22;37694;51.748;14.326;2022-10-24T14:05:33;24.50;54.00
51613;DHT22;37694;51.748;14.326;2022-10-24T14:08:00;24.50;54.00
51613;DHT22;37694;51.748;14.326;2022-10-24T14:10:26;24.50;54.10
51613;DHT22;37694;51.748;14.326;2022-10-24T14:12:52;24.50;54.60
51613;DHT22;37694;51.748;14.326;2022-10-24T14:15:32;24.50;54.00
51613;DHT22;37694;51.748;14.326;2022-10-24T14:18:01;24.50;54.00
51613;DHT22;37694;51.748;14.326;2022-10-24T14:20:32;24.50;54.00
51613;DHT22;37694;51.748;14.326;2022-10-24T14:22:58;24.50;54.00
51613;DHT22;37694;51.748;14.326;2022-10-24T14:25:34;24.50;54.00
51613;DHT22;37694;51.748;14.326;2022-10-24T14:28:08;24.50;54.00
51613;DHT22;37694;51.748;14.326;2022-10-24T14:30:34;24.50;54.00
51613;DHT22;37694;51.748;14.326;2022-10-24T14:35:30;24.50;54.00
51613;DHT22;37694;51.748;14.326;2022-10-24T14:37:56;24.50;54.00
51613;DHT22;37694;51.748;14.326;2022-10-24T14:40:22;24.50;54.00
51613;DHT22;37694;51.748;14.326;2022-10-24T14:42:48;24.50;54.10
51613;DHT22;37694;51.748;14.326;2022-10-24T14:45:27;24.50;54.10
51613;DHT22;37694;51.748;14.326;2022-10-24T14:47:55;24.50;54.00
51613;DHT22;37694;51.748;14.326;2022-10-24T14:50:39;24.50;54.30
51613;DHT22;37694;51.748;14.326;2022-10-24T14:53:21;24.50;54.10
51613;DHT22;37694;51.748;14.326;2022-10-24T14:55:51;24.50;54.20
51613;DHT22;37694;51.748;14.326;2022-10-24T14:58:22;24.50;54.30
51613;DHT22;37694;51.748;14.326;2022-10-24T15:00:48;24.50;54.40
51613;DHT22;37694;51.748;14.326;2022-10-24T15:03:14;24.50;54.40
51613;DHT22;37694;51.748;14.326;2022-10-24T15:05:41;24.50;54.50
51613;DHT22;37694;51.748;14.326;2022-10-24T15:08:18;24.50;54.40
51613;DHT22;37694;51.748;14.326;2022-10-24T15:10:44;24.50;54.30
51613;DHT22;37694;51.748;14.326;2022-10-24T15:13:13;24.50;54.20
51613;DHT22;37694;51.748;14.326;2022-10-24T15:18:17;24.50;54.10
51613;DHT22;37694;51.748;14.326;2022-10-24T15:20:45;24.50;54.10
51613;DHT22;37694;51.748;14.326;2022-10-24T15:23:28;24.50;54.20
51613;DHT22;37694;51.748;14.326;2022-10-24T15:26:13;24.50;54.10
51613;DHT22;37694;51.748;14.326;2022-10-24T15:29:03;24.50;54.30
51613;DHT22;37694;51.748;14.326;2022-10-24T15:31:35;24.50;54.80
51613;DHT22;37694;51.748;14.326;2022-10-24T15:34:01;24.40;54.20
51613;DHT22;37694;51.748;14.326;2022-10-24T15:36:32;24.40;54.30
51613;DHT22;37694;51.748;14.326;2022-10-24T15:41:36;24.50;54.20
51613;DHT22;37694;51.748;14.326;2022-10-24T15:44:15;24.50;54.10
51613;DHT22;37694;51.748;14.326;2022-10-24T15:46:42;24.50;54.10
51613;DHT22;37694;51.748;14.326;2022-10-24T15:49:08;24.50;54.20
51613;DHT22;37694;51.748;14.326;2022-10-24T15:51:36;24.50;54.20
51613;DHT22;37694;51.748;14.326;2022-10-24T15:54:02;24.50;54.20
51613;DHT22;37694;51.748;14.326;2022-10-24T15:56:27;24.50;54.30
51613;DHT22;37694;51.748;14.326;2022-10-24T15:58:53;24.50;54.30
51613;DHT22;37694;51.748;14.326;2022-10-24T16:01:50;24.50;54.20
51613;DHT22;37694;51.748;14.326;2022-10-24T16:04:17;24.50;54.10
51613;DHT22;37694;51.748;14.326;2022-10-24T16:06:43;24.50;54.20
51613;DHT22;37694;51.748;14.326;2022-10-24T16:09:20;24.50;54.40
51613;DHT22;37694;51.748;14.326;2022-10-24T16:11:48;24.50;54.40
51613;DHT22;37694;51.748;14.326;2022-10-24T16:14:19;24.50;54.50
51613;DHT22;37694;51.748;14.326;2022-10-24T16:16:45;24.50;54.50
51613;DHT22;37694;51.748;14.326;2022-10-24T16:19:11;24.50;54.50
51613;DHT22;37694;51.748;14.326;2022-10-24T16:21:38;24.50;54.40
51613;DHT22;37694;51.748;14.326;2022-10-24T16:24:05;24.50;54.30
51613;DHT22;37694;51.748;14.326;2022-10-24T16:26:32;24.50;54.50
51613;DHT22;37694;51.748;14.326;2022-10-24T16:28:58;24.60;54.80
51613;DHT22;37694;51.748;14.326;2022-10-24T16:31:24;24.60;54.70
51613;DHT22;37694;51.748;14.326;2022-10-24T16:33:50;24.60;54.60
51613;DHT22;37694;51.748;14.326;2022-10-24T16:36:16;24.60;54.60
51613;DHT22;37694;51.748;14.326;2022-10-24T16:38:43;24.60;54.60
51613;DHT22;37694;51.748;14.326;2022-10-24T16:41:24;24.50;54.70
51613;DHT22;37694;51.748;14.326;2022-10-24T16:43:53;24.60;54.60
51613;DHT22;37694;51.748;14.326;2022-10-24T16:46:20;24.60;54.60
51613;DHT22;37694;51.748;14.326;2022-10-24T16:48:46;24.60;54.60
51613;DHT22;37694;51.748;14.326;2022-10-24T16:51:15;24.50;54.60
51613;DHT22;37694;51.748;14.326;2022-10-24T16:53:41;24.60;54.40
51613;DHT22;37694;51.748;14.326;2022-10-24T16:56:09;24.60;54.50
51613;DHT22;37694;51.748;14.326;2022-10-24T16:58:36;24.60;54.50
51613;DHT22;37694;51.748;14.326;2022-10-24T17:01:04;24.60;54.80
51613;DHT22;37694;51.748;14.326;2022-10-24T17:03:30;24.60;54.70
51613;DHT22;37694;51.748;14.326;2022-10-24T17:05:55;24.60;54.80
51613;DHT22;37694;51.748;14.326;2022-10-24T17:08:21;24.60;54.80
51613;DHT22;37694;51.748;14.326;2022-10-24T17:10:46;24.60;54.80
51613;DHT22;37694;51.748;14.326;2022-10-24T17:13:12;24.70;55.20
51613;DHT22;37694;51.748;14.326;2022-10-24T17:15:38;24.70;54.80
51613;DHT22;37694;51.748;14.326;2022-10-24T17:18:04;24.70;55.90
51613;DHT22;37694;51.748;14.326;2022-10-24T17:20:30;24.70;54.80
51613;DHT22;37694;51.748;14.326;2022-10-24T17:22:56;24.70;55.00
51613;DHT22;37694;51.748;14.326;2022-10-24T17:25:25;24.70;55.00
51613;DHT22;37694;51.748;14.326;2022-10-24T17:27:51;24.70;54.80